Aeroporto :
LOGIN :

Iscrizione | Disclaimer

   EN    FR    IT 

 










Sommario :    VFR   VFR Marginale   IFR   IFR Intensivo   IFR Molto Intensivo
Visibilità : 
Base nubi : 
>= 8 km
>= 3000ft
5 / 8 km
1000 / 3000 ft
1500m / 5 km
500 / 1000 ft
800 / 1500m
200 / 500 ft
< 800m
< 200 ft
Simboli :   Temporali  Nebbia  Neve Forte  Precipitazioni Forti  Vento > 20 kt
SIGMETs :   Varie  Temporali  Ghiacco  Turbolenza  Onda orograficha  Ceneri Vulcaniche







- Altitudine del aeroporto : 499 ft
- Codice IATA : TLS
- Carte del aeroporto


LFBO - Toulouse / Blagnac

ULTIMO METAR :
  • 261600Z AUTO 27014KT 9999 FEW023/// SCT048/// BKN074/// ///CB 12/11 Q1023 BECMG SCT040

METARs OBSOLETI :
  • 261530Z AUTO 28017KT 9999 -RA SCT027/// SCT036/// BKN048/// ///CB 12/09 Q1022 BECMG SCT040
  • 261500Z AUTO 26014KT 230V290 9000 SCT030/// BKN048/// BKN072/// ///CB 14/10 Q1022 TEMPO 27018G28KT 4000 SHRA BECMG SCT040
  • 261430Z AUTO 27017KT 9000 4100 -RA FEW026/// BKN060/// BKN074/// ///CB 12/10 Q1022 TEMPO 27018G28KT 4000 SHRA BECMG SCT040
  • 261400Z AUTO 28017KT 240V300 9999 FEW027/// SCT060/// BKN080/// ///CB 14/10 Q1022 TEMPO 27018G28KT 4000 SHRA
  • 261330Z AUTO 27015KT 9999 -RA SCT016/// BKN023/// BKN046/// ///TCU 13/11 Q1022 TEMPO 27018G28KT 4000 SHRA BKN020 FEW040CB

TAF TAF LFBO
Valido dal 26 a 12 ore il 27 a 18 ore UTC


261100Z 2612/2718 26008KT 9999 SCT040TCU BKN120
TEMPO 2612/2616 27018G28KT 4000 SHRA BKN020 FEW040CB
BECMG 2616/2618 SCT040
BECMG 2704/2707 26012KT BKN015
BECMG 2715/2718 BKN030
ATIS : +33 5 62 74 66 36
Nessun NOTAM noto per questo aeroporto.
1 SIGMET conosciuto per la FIR Bordeaux (LFBB) :
 
Turbolenza severa
LFBB SIGMET 5 VALID 261400/261800 LFPW
LFBB BORDEAUX FIR/UIR SEV TURB FCST WI N4330 E00245 - N4245 E00230 - N4300 E00200 - N4330 E00245 SFC/FL050 STNR INTSF=



MetMap, La meteo Aeronautica in un colpo d'occhio ! - Copyright ORBIFLY Dicembre 2007 - Disclaimer

ORBIFLY MET'MAP TEAM :

Programmazione e sviluppo : Alexandra Zaïnal
Concezione e sviluppo : Baudouin d'Aumeries
Co-Programmazione e sviluppo : Marc-Olivier Méhu
Supporto tecnico e logistico : Manuel Goepfert
Aiuto per la traduzione : Arnaldo La Scala

Contatto : metmap@orbifly.com




FONTI E CREDITI :

   NOAA